Weather at (Duplicate)Hacienda El Oasis Airport

Public forecast

Using degrees Celsius for public forecast. Weather courtesy of forecast.io.

Closest aviation weather report (METAR) to (Duplicate)Hacienda El Oasis Airport

Closest report is (Weather station)St Anicet Airport, 2.2 nm (4.2 km) N.

(retrieved 0 seconds ago)

Closest aviation forecast (TAF) to (Duplicate)Hacienda El Oasis Airport

Closest forecast is Port Gentil Airport, 531.5 nm (984.3 km) E.

2024/06/14 12:00 (retrieved 2 hours ago)

TAF FOOL 141100Z 1412/1518 18007KT 9999 SCT012 BKN030 TAF FOOG 141100Z 1412/1512 17009KT 9999 SCT010